Weather at Brod Airstrip

Public forecast

Using degrees Celsius for public forecast. Weather courtesy of forecast.io.

Closest aviation weather report (METAR) to Brod Airstrip

Closest report is Tuzla International Airport, 23.3 nm (43.2 km) S.

2024/05/24 06:30 (retrieved 27 minutes ago)

LQTZ 240630Z VRB02KT 9999 FEW040 18/15 Q1018

Closest aviation forecast (TAF) to Brod Airstrip

Closest forecast is Tuzla International Airport, 23.3 nm (43.2 km) S.

2024/05/24 06:06 (retrieved 51 minutes ago)

TAF LQTZ 240500Z 2406/2506 VRB02KT CAVOK TX24/2412Z TN11/2504Z PROB40 TEMPO 2412/2418 VRB15KT 4000 TSRA FEW035CB BKN040 PROB40 TEMPO 2422/2506 2000 BR PROB30 TEMPO 2500/2506 0300 FG BKN002